createdAt,value
2018-09-02T00:05:23.000Z,46.665
2018-09-02T00:15:23.000Z,46.727
2018-09-02T00:25:23.000Z,46.822
2018-09-02T00:35:23.000Z,46.865
2018-09-02T00:45:23.000Z,46.884
2018-09-02T00:55:23.000Z,47.077
2018-09-02T01:05:23.000Z,47.115
2018-09-02T01:15:23.000Z,47.245
2018-09-02T01:25:24.000Z,47.273
2018-09-02T01:35:23.000Z,47.207
2018-09-02T01:45:23.000Z,47.377
2018-09-02T01:55:23.000Z,47.278
2018-09-02T02:05:23.000Z,47.393
2018-09-02T02:15:23.000Z,47.457
2018-09-02T02:25:23.000Z,47.443
2018-09-02T02:35:23.000Z,47.496
2018-09-02T02:45:23.000Z,47.644
2018-09-02T02:55:23.000Z,47.598
2018-09-02T03:05:24.000Z,47.597
2018-09-02T03:15:24.000Z,47.66
2018-09-02T03:25:24.000Z,47.678
2018-09-02T03:35:24.000Z,47.72
2018-09-02T03:45:24.000Z,47.676
2018-09-02T03:55:24.000Z,47.749
2018-09-02T04:05:24.000Z,47.778
2018-09-02T04:15:24.000Z,47.894
2018-09-02T04:25:24.000Z,47.839
2018-09-02T04:35:24.000Z,48.178
2018-09-02T04:45:24.000Z,48.24
2018-09-02T04:55:24.000Z,48.25
2018-09-02T05:05:24.000Z,48.206
2018-09-02T05:15:24.000Z,48.215
2018-09-02T05:25:24.000Z,48.225
2018-09-02T05:35:24.000Z,48.278
2018-09-02T05:45:24.000Z,48.203
2018-09-02T05:55:24.000Z,48.246
2018-09-02T06:05:24.000Z,48.321
2018-09-02T06:15:24.000Z,48.192
2018-09-02T06:25:24.000Z,48.192
2018-09-02T06:35:24.000Z,48.206
2018-09-02T06:45:24.000Z,48.251
2018-09-02T06:55:24.000Z,47.912
2018-09-02T07:05:24.000Z,47.918
2018-09-02T07:15:24.000Z,47.783
2018-09-02T07:25:24.000Z,47.632
2018-09-02T07:35:24.000Z,47.476
2018-09-02T07:45:24.000Z,47.287
2018-09-02T07:55:24.000Z,47.014
2018-09-02T08:05:24.000Z,47.02
2018-09-02T08:15:24.000Z,46.581
2018-09-02T08:25:24.000Z,46.093
2018-09-02T08:35:24.000Z,45.745
2018-09-02T08:45:24.000Z,45.659
2018-09-02T08:55:24.000Z,45.213
2018-09-02T09:05:24.000Z,45.114
2018-09-02T09:15:24.000Z,44.334
2018-09-02T09:25:24.000Z,41.61
2018-09-02T09:35:24.000Z,41.623
2018-09-02T09:45:24.000Z,41.197
2018-09-02T09:55:24.000Z,41.208
2018-09-02T10:05:24.000Z,40.169
2018-09-02T10:15:24.000Z,39.174
2018-09-02T10:25:24.000Z,38.308
2018-09-02T10:35:24.000Z,37.432
2018-09-02T10:45:24.000Z,36.655
2018-09-02T10:55:24.000Z,36.941
2018-09-02T11:05:24.000Z,36.235
2018-09-02T11:15:24.000Z,34.934
2018-09-02T11:25:24.000Z,35.092
2018-09-02T11:35:25.000Z,34.887
2018-09-02T11:45:25.000Z,34.626
2018-09-02T11:55:25.000Z,34.138
2018-09-02T12:05:25.000Z,34.169
2018-09-02T12:15:25.000Z,33.647
2018-09-02T12:25:25.000Z,33.817
2018-09-02T12:35:25.000Z,33.316
2018-09-02T12:45:25.000Z,33.622
2018-09-02T12:55:25.000Z,32.933
2018-09-02T13:05:26.000Z,33.501
2018-09-02T13:15:25.000Z,33.31
2018-09-02T13:25:25.000Z,33.333
2018-09-02T13:35:25.000Z,32.854
2018-09-02T13:45:25.000Z,33.141
2018-09-02T13:55:26.000Z,33.194
2018-09-02T14:05:25.000Z,32.705
2018-09-02T14:15:25.000Z,32.972
2018-09-02T14:25:25.000Z,33.235
2018-09-02T14:35:25.000Z,33.278
2018-09-02T14:45:25.000Z,33.388
2018-09-02T14:55:25.000Z,33.474
2018-09-02T15:05:25.000Z,33.584
2018-09-02T15:15:25.000Z,33.633
2018-09-02T15:25:25.000Z,33.393
2018-09-02T15:35:25.000Z,33.039
2018-09-02T15:45:25.000Z,33.412
2018-09-02T15:55:25.000Z,33.527
2018-09-02T16:05:25.000Z,34.01
2018-09-02T16:15:25.000Z,34.461
2018-09-02T16:25:25.000Z,34.24
2018-09-02T16:35:26.000Z,34.394
2018-09-02T16:45:25.000Z,34.539
2018-09-02T16:55:25.000Z,35.25
2018-09-02T17:05:25.000Z,34.743
2018-09-02T17:15:25.000Z,34.949
2018-09-02T17:25:25.000Z,35.08
2018-09-02T17:35:25.000Z,35.429
2018-09-02T17:45:25.000Z,35.221
2018-09-02T17:55:25.000Z,35.49
2018-09-02T18:05:26.000Z,35.944
2018-09-02T18:15:25.000Z,36.033
2018-09-02T18:25:25.000Z,36.265
2018-09-02T18:35:25.000Z,36.615
2018-09-02T18:45:25.000Z,36.876
2018-09-02T18:55:25.000Z,37.55
2018-09-02T19:05:25.000Z,37.516
2018-09-02T19:15:25.000Z,37.899
2018-09-02T19:25:25.000Z,37.768
2018-09-02T19:35:25.000Z,37.975
2018-09-02T19:45:26.000Z,38.171
2018-09-02T19:55:26.000Z,38.193
2018-09-02T20:05:26.000Z,38.19
2018-09-02T20:15:26.000Z,37.999
2018-09-02T20:25:26.000Z,38
2018-09-02T20:35:26.000Z,39.033
2018-09-02T20:45:26.000Z,38.425
2018-09-02T20:55:26.000Z,38.489
2018-09-02T21:05:26.000Z,38.466
2018-09-02T21:15:26.000Z,38.63
2018-09-02T21:25:26.000Z,38.718
2018-09-02T21:35:26.000Z,39.416
2018-09-02T21:45:26.000Z,39.1
2018-09-02T21:55:26.000Z,39.057
2018-09-02T22:05:26.000Z,39.319
2018-09-02T22:15:26.000Z,39.406
2018-09-02T22:25:26.000Z,39.734
2018-09-02T22:35:26.000Z,39.776
2018-09-02T22:45:26.000Z,39.974
2018-09-02T22:55:26.000Z,39.767
2018-09-02T23:05:26.000Z,39.959
2018-09-02T23:15:26.000Z,40.268
2018-09-02T23:25:26.000Z,40.147
2018-09-02T23:35:26.000Z,40.211
2018-09-02T23:45:26.000Z,40.244
2018-09-02T23:55:26.000Z,40.602
